sensor_id;sensor_type;location;lat;lon;timestamp;P1;durP1;ratioP1;P2;durP2;ratioP2
4700;SDS011;8724;51.272;6.554;2023-04-24T00:00:38;1.57;;;1.10;;
4700;SDS011;8724;51.272;6.554;2023-04-24T00:03:07;1.13;;;1.03;;
4700;SDS011;8724;51.272;6.554;2023-04-24T00:05:35;0.70;;;0.70;;
4700;SDS011;8724;51.272;6.554;2023-04-24T00:08:06;1.13;;;1.13;;
4700;SDS011;8724;51.272;6.554;2023-04-24T00:10:35;1.00;;;1.00;;
4700;SDS011;8724;51.272;6.554;2023-04-24T00:13:03;1.33;;;1.10;;
4700;SDS011;8724;51.272;6.554;2023-04-24T00:15:32;0.93;;;0.93;;
4700;SDS011;8724;51.272;6.554;2023-04-24T00:18:01;1.60;;;1.33;;
4700;SDS011;8724;51.272;6.554;2023-04-24T00:20:29;5.40;;;1.10;;
4700;SDS011;8724;51.272;6.554;2023-04-24T00:22:58;1.50;;;1.43;;
4700;SDS011;8724;51.272;6.554;2023-04-24T00:25:27;1.40;;;1.37;;
4700;SDS011;8724;51.272;6.554;2023-04-24T00:27:55;1.70;;;1.60;;
4700;SDS011;8724;51.272;6.554;2023-04-24T00:30:23;1.83;;;1.27;;
4700;SDS011;8724;51.272;6.554;2023-04-24T00:32:53;3.27;;;2.23;;
4700;SDS011;8724;51.272;6.554;2023-04-24T00:35:22;2.63;;;2.43;;
4700;SDS011;8724;51.272;6.554;2023-04-24T00:37:51;3.07;;;2.87;;
4700;SDS011;8724;51.272;6.554;2023-04-24T00:40:19;2.20;;;2.00;;
4700;SDS011;8724;51.272;6.554;2023-04-24T00:42:47;2.50;;;2.30;;
4700;SDS011;8724;51.272;6.554;2023-04-24T00:45:16;6.30;;;2.50;;
4700;SDS011;8724;51.272;6.554;2023-04-24T00:47:45;3.00;;;2.80;;
4700;SDS011;8724;51.272;6.554;2023-04-24T00:50:15;2.70;;;2.50;;
4700;SDS011;8724;51.272;6.554;2023-04-24T00:52:44;6.30;;;2.77;;
4700;SDS011;8724;51.272;6.554;2023-04-24T00:55:13;3.47;;;2.77;;
4700;SDS011;8724;51.272;6.554;2023-04-24T00:57:42;3.43;;;3.00;;
4700;SDS011;8724;51.272;6.554;2023-04-24T01:00:12;4.53;;;2.90;;
4700;SDS011;8724;51.272;6.554;2023-04-24T01:02:41;5.70;;;3.10;;
4700;SDS011;8724;51.272;6.554;2023-04-24T01:05:12;3.20;;;2.87;;
4700;SDS011;8724;51.272;6.554;2023-04-24T01:07:43;2.87;;;2.50;;
4700;SDS011;8724;51.272;6.554;2023-04-24T01:10:15;2.83;;;2.30;;
4700;SDS011;8724;51.272;6.554;2023-04-24T01:12:45;2.63;;;2.40;;
4700;SDS011;8724;51.272;6.554;2023-04-24T01:15:14;3.60;;;2.60;;
4700;SDS011;8724;51.272;6.554;2023-04-24T01:17:42;3.60;;;3.30;;
4700;SDS011;8724;51.272;6.554;2023-04-24T01:20:10;3.00;;;2.70;;
4700;SDS011;8724;51.272;6.554;2023-04-24T01:22:41;3.90;;;2.40;;
4700;SDS011;8724;51.272;6.554;2023-04-24T01:25:10;3.10;;;2.90;;
4700;SDS011;8724;51.272;6.554;2023-04-24T01:27:38;2.80;;;2.57;;
4700;SDS011;8724;51.272;6.554;2023-04-24T01:30:07;3.97;;;3.47;;
4700;SDS011;8724;51.272;6.554;2023-04-24T01:32:36;3.50;;;3.20;;
4700;SDS011;8724;51.272;6.554;2023-04-24T01:35:06;4.50;;;2.90;;
4700;SDS011;8724;51.272;6.554;2023-04-24T01:37:35;3.50;;;3.20;;
4700;SDS011;8724;51.272;6.554;2023-04-24T01:40:06;4.57;;;3.30;;
4700;SDS011;8724;51.272;6.554;2023-04-24T01:42:35;6.50;;;3.67;;
4700;SDS011;8724;51.272;6.554;2023-04-24T01:45:04;5.80;;;4.00;;
4700;SDS011;8724;51.272;6.554;2023-04-24T01:47:33;6.33;;;4.10;;
4700;SDS011;8724;51.272;6.554;2023-04-24T01:50:01;6.37;;;4.00;;
4700;SDS011;8724;51.272;6.554;2023-04-24T01:52:31;4.40;;;4.00;;
4700;SDS011;8724;51.272;6.554;2023-04-24T01:54:59;7.93;;;4.17;;
4700;SDS011;8724;51.272;6.554;2023-04-24T01:57:30;7.50;;;4.50;;
4700;SDS011;8724;51.272;6.554;2023-04-24T01:59:59;7.10;;;4.60;;
4700;SDS011;8724;51.272;6.554;2023-04-24T02:02:28;4.90;;;4.20;;
4700;SDS011;8724;51.272;6.554;2023-04-24T02:04:57;5.27;;;4.77;;
4700;SDS011;8724;51.272;6.554;2023-04-24T02:07:25;9.47;;;5.50;;
4700;SDS011;8724;51.272;6.554;2023-04-24T02:09:53;6.40;;;5.17;;
4700;SDS011;8724;51.272;6.554;2023-04-24T02:12:21;6.00;;;4.80;;
4700;SDS011;8724;51.272;6.554;2023-04-24T02:14:52;6.60;;;5.40;;
4700;SDS011;8724;51.272;6.554;2023-04-24T02:17:20;6.67;;;5.97;;
4700;SDS011;8724;51.272;6.554;2023-04-24T02:19:49;9.00;;;4.83;;
4700;SDS011;8724;51.272;6.554;2023-04-24T02:22:17;10.73;;;5.87;;
4700;SDS011;8724;51.272;6.554;2023-04-24T02:24:45;7.03;;;5.53;;
4700;SDS011;8724;51.272;6.554;2023-04-24T02:27:14;7.37;;;5.80;;
4700;SDS011;8724;51.272;6.554;2023-04-24T02:29:43;9.93;;;6.40;;
4700;SDS011;8724;51.272;6.554;2023-04-24T02:32:13;10.70;;;5.83;;
4700;SDS011;8724;51.272;6.554;2023-04-24T02:34:42;9.30;;;6.33;;
4700;SDS011;8724;51.272;6.554;2023-04-24T02:37:11;8.53;;;6.30;;
4700;SDS011;8724;51.272;6.554;2023-04-24T02:39:39;9.43;;;6.70;;
4700;SDS011;8724;51.272;6.554;2023-04-24T02:42:08;9.80;;;6.80;;
4700;SDS011;8724;51.272;6.554;2023-04-24T02:44:36;7.10;;;6.40;;
4700;SDS011;8724;51.272;6.554;2023-04-24T02:47:04;7.33;;;6.50;;
4700;SDS011;8724;51.272;6.554;2023-04-24T02:49:35;8.10;;;7.17;;
4700;SDS011;8724;51.272;6.554;2023-04-24T02:52:04;6.47;;;5.77;;
4700;SDS011;8724;51.272;6.554;2023-04-24T02:54:32;11.63;;;7.00;;
4700;SDS011;8724;51.272;6.554;2023-04-24T02:57:00;9.60;;;6.97;;
4700;SDS011;8724;51.272;6.554;2023-04-24T02:59:29;8.53;;;7.20;;
4700;SDS011;8724;51.272;6.554;2023-04-24T03:01:58;9.50;;;5.87;;
4700;SDS011;8724;51.272;6.554;2023-04-24T03:04:26;9.27;;;7.07;;
4700;SDS011;8724;51.272;6.554;2023-04-24T03:06:56;12.80;;;6.67;;
4700;SDS011;8724;51.272;6.554;2023-04-24T03:09:25;14.90;;;7.00;;
4700;SDS011;8724;51.272;6.554;2023-04-24T03:11:53;12.33;;;7.67;;
4700;SDS011;8724;51.272;6.554;2023-04-24T03:14:23;9.20;;;6.57;;
4700;SDS011;8724;51.272;6.554;2023-04-24T03:16:52;8.00;;;6.87;;
4700;SDS011;8724;51.272;6.554;2023-04-24T03:19:20;10.30;;;6.60;;
4700;SDS011;8724;51.272;6.554;2023-04-24T03:22:02;10.20;;;6.00;;
4700;SDS011;8724;51.272;6.554;2023-04-24T03:24:32;9.07;;;6.43;;
4700;SDS011;8724;51.272;6.554;2023-04-24T03:27:00;8.23;;;5.43;;
4700;SDS011;8724;51.272;6.554;2023-04-24T03:29:48;13.30;;;5.83;;
4700;SDS011;8724;51.272;6.554;2023-04-24T03:32:21;8.47;;;6.20;;
4700;SDS011;8724;51.272;6.554;2023-04-24T03:34:51;7.90;;;5.67;;
4700;SDS011;8724;51.272;6.554;2023-04-24T03:37:21;9.77;;;6.63;;
4700;SDS011;8724;51.272;6.554;2023-04-24T03:40:06;7.30;;;5.43;;
4700;SDS011;8724;51.272;6.554;2023-04-24T03:42:37;7.80;;;5.60;;
4700;SDS011;8724;51.272;6.554;2023-04-24T03:45:06;7.57;;;6.00;;
4700;SDS011;8724;51.272;6.554;2023-04-24T03:47:38;9.57;;;6.30;;
4700;SDS011;8724;51.272;6.554;2023-04-24T03:50:07;9.50;;;6.47;;
4700;SDS011;8724;51.272;6.554;2023-04-24T03:52:40;8.03;;;5.67;;
4700;SDS011;8724;51.272;6.554;2023-04-24T03:55:11;8.63;;;6.10;;
4700;SDS011;8724;51.272;6.554;2023-04-24T03:57:44;6.77;;;5.27;;
4700;SDS011;8724;51.272;6.554;2023-04-24T04:00:20;12.73;;;6.20;;
4700;SDS011;8724;51.272;6.554;2023-04-24T04:02:59;9.27;;;6.20;;
4700;SDS011;8724;51.272;6.554;2023-04-24T04:05:28;9.37;;;6.97;;
4700;SDS011;8724;51.272;6.554;2023-04-24T04:07:58;7.70;;;5.47;;
4700;SDS011;8724;51.272;6.554;2023-04-24T04:10:26;9.70;;;6.63;;
4700;SDS011;8724;51.272;6.554;2023-04-24T04:12:55;9.13;;;6.30;;
4700;SDS011;8724;51.272;6.554;2023-04-24T04:15:23;9.83;;;5.50;;
4700;SDS011;8724;51.272;6.554;2023-04-24T04:17:52;6.53;;;5.13;;
4700;SDS011;8724;51.272;6.554;2023-04-24T04:20:20;10.13;;;6.10;;
4700;SDS011;8724;51.272;6.554;2023-04-24T04:22:48;7.60;;;5.60;;
4700;SDS011;8724;51.272;6.554;2023-04-24T04:25:25;8.90;;;5.60;;
4700;SDS011;8724;51.272;6.554;2023-04-24T04:27:54;8.53;;;5.60;;
4700;SDS011;8724;51.272;6.554;2023-04-24T04:30:22;5.20;;;4.70;;
4700;SDS011;8724;51.272;6.554;2023-04-24T04:32:57;7.97;;;5.70;;
4700;SDS011;8724;51.272;6.554;2023-04-24T04:35:26;5.80;;;4.73;;
4700;SDS011;8724;51.272;6.554;2023-04-24T04:37:55;5.67;;;5.00;;
4700;SDS011;8724;51.272;6.554;2023-04-24T04:40:44;6.63;;;5.47;;
4700;SDS011;8724;51.272;6.554;2023-04-24T04:43:14;4.70;;;4.30;;
4700;SDS011;8724;51.272;6.554;2023-04-24T04:45:49;9.10;;;5.80;;
4700;SDS011;8724;51.272;6.554;2023-04-24T04:48:41;5.70;;;5.13;;
4700;SDS011;8724;51.272;6.554;2023-04-24T04:51:09;6.80;;;5.30;;
4700;SDS011;8724;51.272;6.554;2023-04-24T04:53:38;4.57;;;4.17;;
4700;SDS011;8724;51.272;6.554;2023-04-24T04:56:07;5.60;;;5.10;;
4700;SDS011;8724;51.272;6.554;2023-04-24T04:58:40;8.77;;;5.67;;
4700;SDS011;8724;51.272;6.554;2023-04-24T05:01:11;7.43;;;6.00;;
4700;SDS011;8724;51.272;6.554;2023-04-24T05:03:43;9.80;;;4.70;;
4700;SDS011;8724;51.272;6.554;2023-04-24T05:06:14;10.30;;;4.63;;
4700;SDS011;8724;51.272;6.554;2023-04-24T05:08:44;6.30;;;4.87;;
4700;SDS011;8724;51.272;6.554;2023-04-24T05:11:27;14.13;;;5.90;;
4700;SDS011;8724;51.272;6.554;2023-04-24T05:13:57;5.53;;;4.93;;
4700;SDS011;8724;51.272;6.554;2023-04-24T05:16:33;7.10;;;5.03;;
4700;SDS011;8724;51.272;6.554;2023-04-24T05:19:04;5.57;;;4.97;;
4700;SDS011;8724;51.272;6.554;2023-04-24T05:21:37;4.70;;;4.30;;
4700;SDS011;8724;51.272;6.554;2023-04-24T05:24:07;4.87;;;4.40;;
4700;SDS011;8724;51.272;6.554;2023-04-24T05:27:10;4.93;;;4.40;;
4700;SDS011;8724;51.272;6.554;2023-04-24T05:29:39;5.40;;;4.90;;
4700;SDS011;8724;51.272;6.554;2023-04-24T05:32:09;4.90;;;4.27;;
4700;SDS011;8724;51.272;6.554;2023-04-24T05:34:37;7.30;;;4.97;;
4700;SDS011;8724;51.272;6.554;2023-04-24T05:37:05;8.70;;;4.77;;
4700;SDS011;8724;51.272;6.554;2023-04-24T05:39:36;4.83;;;4.43;;
4700;SDS011;8724;51.272;6.554;2023-04-24T05:42:04;5.83;;;4.60;;
4700;SDS011;8724;51.272;6.554;2023-04-24T05:44:34;8.47;;;4.37;;
4700;SDS011;8724;51.272;6.554;2023-04-24T05:47:02;4.40;;;4.00;;
4700;SDS011;8724;51.272;6.554;2023-04-24T05:49:31;4.70;;;4.30;;
4700;SDS011;8724;51.272;6.554;2023-04-24T05:52:00;4.60;;;4.20;;
4700;SDS011;8724;51.272;6.554;2023-04-24T05:54:31;4.63;;;4.23;;
4700;SDS011;8724;51.272;6.554;2023-04-24T05:56:59;5.70;;;3.73;;
4700;SDS011;8724;51.272;6.554;2023-04-24T05:59:45;4.47;;;4.03;;
4700;SDS011;8724;51.272;6.554;2023-04-24T06:02:13;5.97;;;5.07;;
4700;SDS011;8724;51.272;6.554;2023-04-24T06:04:43;3.83;;;3.50;;
4700;SDS011;8724;51.272;6.554;2023-04-24T06:07:12;4.30;;;3.20;;
4700;SDS011;8724;51.272;6.554;2023-04-24T06:09:42;4.53;;;4.07;;
4700;SDS011;8724;51.272;6.554;2023-04-24T06:12:11;4.03;;;3.73;;
4700;SDS011;8724;51.272;6.554;2023-04-24T06:14:52;6.43;;;4.27;;
4700;SDS011;8724;51.272;6.554;2023-04-24T06:17:28;4.50;;;3.60;;
4700;SDS011;8724;51.272;6.554;2023-04-24T06:19:58;5.47;;;3.60;;
4700;SDS011;8724;51.272;6.554;2023-04-24T06:22:26;3.30;;;3.03;;
4700;SDS011;8724;51.272;6.554;2023-04-24T06:24:55;4.10;;;3.80;;
4700;SDS011;8724;51.272;6.554;2023-04-24T06:27:23;3.03;;;2.80;;
4700;SDS011;8724;51.272;6.554;2023-04-24T06:29:53;4.30;;;3.30;;
4700;SDS011;8724;51.272;6.554;2023-04-24T06:32:22;3.30;;;3.00;;
4700;SDS011;8724;51.272;6.554;2023-04-24T06:34:51;4.70;;;3.17;;
4700;SDS011;8724;51.272;6.554;2023-04-24T06:37:19;4.93;;;3.03;;
4700;SDS011;8724;51.272;6.554;2023-04-24T06:39:48;3.10;;;2.80;;
4700;SDS011;8724;51.272;6.554;2023-04-24T06:42:16;2.93;;;2.73;;
4700;SDS011;8724;51.272;6.554;2023-04-24T06:44:48;5.17;;;3.40;;
4700;SDS011;8724;51.272;6.554;2023-04-24T06:47:18;5.63;;;3.10;;
4700;SDS011;8724;51.272;6.554;2023-04-24T06:49:46;3.07;;;2.70;;
4700;SDS011;8724;51.272;6.554;2023-04-24T06:52:14;3.03;;;2.53;;
4700;SDS011;8724;51.272;6.554;2023-04-24T06:54:43;3.30;;;2.33;;
4700;SDS011;8724;51.272;6.554;2023-04-24T06:57:11;2.73;;;2.20;;
4700;SDS011;8724;51.272;6.554;2023-04-24T06:59:39;1.83;;;1.73;;
4700;SDS011;8724;51.272;6.554;2023-04-24T07:02:08;1.90;;;1.80;;
4700;SDS011;8724;51.272;6.554;2023-04-24T07:04:38;1.67;;;1.57;;
4700;SDS011;8724;51.272;6.554;2023-04-24T07:07:06;1.30;;;1.30;;
4700;SDS011;8724;51.272;6.554;2023-04-24T07:09:35;1.30;;;1.17;;
4700;SDS011;8724;51.272;6.554;2023-04-24T07:12:05;2.10;;;1.40;;
4700;SDS011;8724;51.272;6.554;2023-04-24T07:14:33;3.03;;;1.17;;
4700;SDS011;8724;51.272;6.554;2023-04-24T07:17:02;0.90;;;0.90;;
4700;SDS011;8724;51.272;6.554;2023-04-24T07:19:30;1.40;;;1.17;;
4700;SDS011;8724;51.272;6.554;2023-04-24T07:22:00;2.40;;;0.90;;
4700;SDS011;8724;51.272;6.554;2023-04-24T07:24:29;0.60;;;0.60;;
4700;SDS011;8724;51.272;6.554;2023-04-24T07:26:58;1.43;;;0.93;;
4700;SDS011;8724;51.272;6.554;2023-04-24T07:29:27;2.10;;;0.70;;
4700;SDS011;8724;51.272;6.554;2023-04-24T07:31:55;1.27;;;0.80;;
4700;SDS011;8724;51.272;6.554;2023-04-24T07:34:24;1.33;;;0.70;;
4700;SDS011;8724;51.272;6.554;2023-04-24T07:36:52;1.97;;;0.83;;
4700;SDS011;8724;51.272;6.554;2023-04-24T07:39:22;0.73;;;0.73;;
4700;SDS011;8724;51.272;6.554;2023-04-24T07:41:51;0.80;;;0.80;;
4700;SDS011;8724;51.272;6.554;2023-04-24T07:44:19;2.03;;;0.77;;
4700;SDS011;8724;51.272;6.554;2023-04-24T07:46:47;1.57;;;0.97;;
4700;SDS011;8724;51.272;6.554;2023-04-24T07:49:16;1.30;;;1.00;;
4700;SDS011;8724;51.272;6.554;2023-04-24T07:51:45;1.10;;;1.00;;
4700;SDS011;8724;51.272;6.554;2023-04-24T07:54:13;1.40;;;1.10;;
4700;SDS011;8724;51.272;6.554;2023-04-24T07:56:43;1.00;;;0.90;;
4700;SDS011;8724;51.272;6.554;2023-04-24T07:59:12;1.00;;;0.83;;
4700;SDS011;8724;51.272;6.554;2023-04-24T08:01:40;2.10;;;1.10;;
4700;SDS011;8724;51.272;6.554;2023-04-24T08:04:08;1.00;;;0.90;;
4700;SDS011;8724;51.272;6.554;2023-04-24T08:06:37;1.50;;;1.03;;
4700;SDS011;8724;51.272;6.554;2023-04-24T08:09:05;1.10;;;1.00;;
4700;SDS011;8724;51.272;6.554;2023-04-24T08:11:33;1.47;;;0.97;;
4700;SDS011;8724;51.272;6.554;2023-04-24T08:14:03;0.93;;;0.93;;
4700;SDS011;8724;51.272;6.554;2023-04-24T08:16:32;1.33;;;1.23;;
4700;SDS011;8724;51.272;6.554;2023-04-24T08:19:01;0.90;;;0.90;;
4700;SDS011;8724;51.272;6.554;2023-04-24T08:21:29;1.57;;;1.07;;
4700;SDS011;8724;51.272;6.554;2023-04-24T08:23:58;1.47;;;0.80;;
4700;SDS011;8724;51.272;6.554;2023-04-24T08:26:26;1.23;;;1.13;;
4700;SDS011;8724;51.272;6.554;2023-04-24T08:28:55;1.87;;;1.30;;
4700;SDS011;8724;51.272;6.554;2023-04-24T08:31:24;1.03;;;1.00;;
4700;SDS011;8724;51.272;6.554;2023-04-24T08:33:53;2.20;;;1.77;;
4700;SDS011;8724;51.272;6.554;2023-04-24T08:36:21;1.33;;;1.33;;
4700;SDS011;8724;51.272;6.554;2023-04-24T08:39:01;4.00;;;2.67;;
4700;SDS011;8724;51.272;6.554;2023-04-24T08:41:30;3.77;;;3.37;;
4700;SDS011;8724;51.272;6.554;2023-04-24T08:43:59;3.43;;;3.13;;
4700;SDS011;8724;51.272;6.554;2023-04-24T08:46:30;3.97;;;3.57;;
4700;SDS011;8724;51.272;6.554;2023-04-24T08:49:00;3.17;;;2.77;;
4700;SDS011;8724;51.272;6.554;2023-04-24T08:51:29;5.23;;;2.57;;
4700;SDS011;8724;51.272;6.554;2023-04-24T08:53:58;2.40;;;2.07;;
4700;SDS011;8724;51.272;6.554;2023-04-24T08:56:27;2.23;;;2.03;;
4700;SDS011;8724;51.272;6.554;2023-04-24T08:58:57;3.20;;;2.70;;
4700;SDS011;8724;51.272;6.554;2023-04-24T09:01:25;3.97;;;3.60;;
4700;SDS011;8724;51.272;6.554;2023-04-24T09:03:56;3.20;;;2.90;;
4700;SDS011;8724;51.272;6.554;2023-04-24T09:06:25;3.97;;;3.27;;
4700;SDS011;8724;51.272;6.554;2023-04-24T09:08:54;3.73;;;3.43;;
4700;SDS011;8724;51.272;6.554;2023-04-24T09:11:23;4.80;;;4.33;;
4700;SDS011;8724;51.272;6.554;2023-04-24T09:13:53;4.80;;;4.23;;
4700;SDS011;8724;51.272;6.554;2023-04-24T09:16:21;4.23;;;3.83;;
4700;SDS011;8724;51.272;6.554;2023-04-24T09:18:50;4.40;;;3.20;;
4700;SDS011;8724;51.272;6.554;2023-04-24T09:21:21;6.63;;;3.80;;
4700;SDS011;8724;51.272;6.554;2023-04-24T09:23:57;6.20;;;4.10;;
4700;SDS011;8724;51.272;6.554;2023-04-24T09:26:29;5.47;;;3.80;;
4700;SDS011;8724;51.272;6.554;2023-04-24T09:28:59;6.50;;;3.80;;
4700;SDS011;8724;51.272;6.554;2023-04-24T09:31:28;4.50;;;3.70;;
4700;SDS011;8724;51.272;6.554;2023-04-24T09:33:57;24.67;;;5.10;;
4700;SDS011;8724;51.272;6.554;2023-04-24T09:36:30;6.30;;;4.17;;
4700;SDS011;8724;51.272;6.554;2023-04-24T09:39:01;7.63;;;4.90;;
4700;SDS011;8724;51.272;6.554;2023-04-24T09:41:31;6.53;;;4.50;;
4700;SDS011;8724;51.272;6.554;2023-04-24T09:44:10;6.80;;;4.60;;
4700;SDS011;8724;51.272;6.554;2023-04-24T09:46:40;7.00;;;4.20;;
4700;SDS011;8724;51.272;6.554;2023-04-24T09:49:12;7.43;;;4.40;;
4700;SDS011;8724;51.272;6.554;2023-04-24T09:51:43;7.40;;;4.50;;
4700;SDS011;8724;51.272;6.554;2023-04-24T09:54:13;5.87;;;4.00;;
4700;SDS011;8724;51.272;6.554;2023-04-24T09:56:43;8.90;;;4.30;;
4700;SDS011;8724;51.272;6.554;2023-04-24T09:59:13;6.30;;;4.00;;
4700;SDS011;8724;51.272;6.554;2023-04-24T10:01:41;6.60;;;5.13;;
4700;SDS011;8724;51.272;6.554;2023-04-24T10:04:18;9.57;;;4.73;;
4700;SDS011;8724;51.272;6.554;2023-04-24T10:06:51;8.97;;;5.00;;
4700;SDS011;8724;51.272;6.554;2023-04-24T10:09:21;10.90;;;4.77;;
4700;SDS011;8724;51.272;6.554;2023-04-24T10:11:51;8.60;;;5.23;;
4700;SDS011;8724;51.272;6.554;2023-04-24T10:14:21;10.60;;;5.10;;
4700;SDS011;8724;51.272;6.554;2023-04-24T10:16:53;6.90;;;4.37;;
4700;SDS011;8724;51.272;6.554;2023-04-24T10:19:23;29.63;;;19.33;;
4700;SDS011;8724;51.272;6.554;2023-04-24T10:21:55;20.67;;;13.87;;
4700;SDS011;8724;51.272;6.554;2023-04-24T10:24:24;11.20;;;5.53;;
4700;SDS011;8724;51.272;6.554;2023-04-24T10:26:53;8.17;;;4.73;;
4700;SDS011;8724;51.272;6.554;2023-04-24T10:29:23;9.07;;;4.93;;
4700;SDS011;8724;51.272;6.554;2023-04-24T10:31:52;10.20;;;4.33;;
4700;SDS011;8724;51.272;6.554;2023-04-24T10:34:21;8.70;;;4.53;;
4700;SDS011;8724;51.272;6.554;2023-04-24T10:36:51;13.30;;;4.80;;
4700;SDS011;8724;51.272;6.554;2023-04-24T10:39:24;6.63;;;4.27;;
4700;SDS011;8724;51.272;6.554;2023-04-24T10:41:54;8.73;;;4.17;;
4700;SDS011;8724;51.272;6.554;2023-04-24T10:44:24;7.80;;;4.07;;
4700;SDS011;8724;51.272;6.554;2023-04-24T10:46:53;10.03;;;4.10;;
4700;SDS011;8724;51.272;6.554;2023-04-24T10:49:32;11.67;;;4.00;;
4700;SDS011;8724;51.272;6.554;2023-04-24T10:52:01;7.70;;;4.13;;
4700;SDS011;8724;51.272;6.554;2023-04-24T10:54:35;9.60;;;3.60;;
4700;SDS011;8724;51.272;6.554;2023-04-24T11:00:13;10.40;;;3.17;;
4700;SDS011;8724;51.272;6.554;2023-04-24T11:02:45;7.37;;;3.20;;
4700;SDS011;8724;51.272;6.554;2023-04-24T11:05:18;5.53;;;3.23;;
4700;SDS011;8724;51.272;6.554;2023-04-24T11:10:42;11.27;;;4.40;;
4700;SDS011;8724;51.272;6.554;2023-04-24T11:13:14;14.43;;;9.27;;
4700;SDS011;8724;51.272;6.554;2023-04-24T11:15:43;13.93;;;6.57;;
4700;SDS011;8724;51.272;6.554;2023-04-24T11:18:14;5.87;;;3.23;;
4700;SDS011;8724;51.272;6.554;2023-04-24T11:20:45;10.83;;;3.63;;
4700;SDS011;8724;51.272;6.554;2023-04-24T11:23:14;6.67;;;3.70;;
4700;SDS011;8724;51.272;6.554;2023-04-24T11:25:45;6.43;;;3.30;;
4700;SDS011;8724;51.272;6.554;2023-04-24T11:28:44;13.47;;;4.27;;
4700;SDS011;8724;51.272;6.554;2023-04-24T11:34:08;16.30;;;4.00;;
4700;SDS011;8724;51.272;6.554;2023-04-24T11:36:38;7.00;;;3.00;;
4700;SDS011;8724;51.272;6.554;2023-04-24T11:39:07;9.70;;;3.90;;
4700;SDS011;8724;51.272;6.554;2023-04-24T11:41:38;5.43;;;2.80;;
4700;SDS011;8724;51.272;6.554;2023-04-24T11:44:07;5.40;;;2.60;;
4700;SDS011;8724;51.272;6.554;2023-04-24T11:46:36;8.50;;;2.73;;
4700;SDS011;8724;51.272;6.554;2023-04-24T11:49:06;6.80;;;2.80;;
4700;SDS011;8724;51.272;6.554;2023-04-24T11:51:35;8.50;;;3.27;;
4700;SDS011;8724;51.272;6.554;2023-04-24T11:54:18;6.23;;;2.60;;
4700;SDS011;8724;51.272;6.554;2023-04-24T11:56:49;10.53;;;2.70;;
4700;SDS011;8724;51.272;6.554;2023-04-24T11:59:18;4.30;;;2.50;;
4700;SDS011;8724;51.272;6.554;2023-04-24T12:01:46;11.10;;;2.73;;
4700;SDS011;8724;51.272;6.554;2023-04-24T12:04:15;12.17;;;7.50;;
4700;SDS011;8724;51.272;6.554;2023-04-24T12:07:00;18.10;;;12.20;;
4700;SDS011;8724;51.272;6.554;2023-04-24T12:09:29;10.97;;;2.80;;
4700;SDS011;8724;51.272;6.554;2023-04-24T12:12:10;4.30;;;2.43;;
4700;SDS011;8724;51.272;6.554;2023-04-24T12:14:43;8.30;;;2.10;;
4700;SDS011;8724;51.272;6.554;2023-04-24T12:17:11;5.03;;;1.93;;
4700;SDS011;8724;51.272;6.554;2023-04-24T12:19:44;7.10;;;2.43;;
4700;SDS011;8724;51.272;6.554;2023-04-24T12:22:13;4.27;;;2.67;;
4700;SDS011;8724;51.272;6.554;2023-04-24T12:24:58;2.07;;;1.97;;
4700;SDS011;8724;51.272;6.554;2023-04-24T12:27:32;6.63;;;1.77;;
4700;SDS011;8724;51.272;6.554;2023-04-24T12:30:00;4.33;;;1.50;;
4700;SDS011;8724;51.272;6.554;2023-04-24T12:32:31;6.13;;;1.63;;
4700;SDS011;8724;51.272;6.554;2023-04-24T12:34:59;7.00;;;2.40;;
4700;SDS011;8724;51.272;6.554;2023-04-24T12:37:32;6.30;;;1.90;;
4700;SDS011;8724;51.272;6.554;2023-04-24T12:40:03;3.47;;;1.47;;
4700;SDS011;8724;51.272;6.554;2023-04-24T12:42:35;3.00;;;1.67;;
4700;SDS011;8724;51.272;6.554;2023-04-24T12:45:09;3.97;;;1.60;;
4700;SDS011;8724;51.272;6.554;2023-04-24T12:47:38;1.97;;;1.40;;
4700;SDS011;8724;51.272;6.554;2023-04-24T12:50:08;3.70;;;1.10;;
4700;SDS011;8724;51.272;6.554;2023-04-24T12:52:37;2.10;;;1.73;;
4700;SDS011;8724;51.272;6.554;2023-04-24T12:55:06;2.30;;;1.40;;
4700;SDS011;8724;51.272;6.554;2023-04-24T12:57:38;3.23;;;1.00;;
4700;SDS011;8724;51.272;6.554;2023-04-24T13:00:07;1.47;;;1.10;;
4700;SDS011;8724;51.272;6.554;2023-04-24T13:02:36;7.77;;;5.60;;
4700;SDS011;8724;51.272;6.554;2023-04-24T13:05:05;5.50;;;3.47;;
4700;SDS011;8724;51.272;6.554;2023-04-24T13:07:34;2.97;;;1.57;;
4700;SDS011;8724;51.272;6.554;2023-04-24T13:10:02;4.10;;;1.40;;
4700;SDS011;8724;51.272;6.554;2023-04-24T13:12:31;2.10;;;1.23;;
4700;SDS011;8724;51.272;6.554;2023-04-24T13:15:01;3.00;;;1.10;;
4700;SDS011;8724;51.272;6.554;2023-04-24T13:17:30;6.30;;;1.80;;
4700;SDS011;8724;51.272;6.554;2023-04-24T13:19:58;2.80;;;1.20;;
4700;SDS011;8724;51.272;6.554;2023-04-24T13:22:27;3.90;;;1.20;;
4700;SDS011;8724;51.272;6.554;2023-04-24T13:24:55;6.40;;;1.50;;
4700;SDS011;8724;51.272;6.554;2023-04-24T13:27:23;6.23;;;1.73;;
4700;SDS011;8724;51.272;6.554;2023-04-24T13:29:52;5.93;;;1.40;;
4700;SDS011;8724;51.272;6.554;2023-04-24T13:32:21;5.03;;;1.47;;
4700;SDS011;8724;51.272;6.554;2023-04-24T13:34:50;4.73;;;1.73;;
4700;SDS011;8724;51.272;6.554;2023-04-24T13:37:18;6.60;;;1.50;;
4700;SDS011;8724;51.272;6.554;2023-04-24T13:39:46;4.17;;;1.70;;
4700;SDS011;8724;51.272;6.554;2023-04-24T13:42:15;2.03;;;1.20;;
4700;SDS011;8724;51.272;6.554;2023-04-24T13:44:43;1.80;;;1.50;;
4700;SDS011;8724;51.272;6.554;2023-04-24T13:47:11;3.53;;;1.30;;
4700;SDS011;8724;51.272;6.554;2023-04-24T13:49:41;4.97;;;1.67;;
4700;SDS011;8724;51.272;6.554;2023-04-24T13:52:09;3.53;;;1.10;;
4700;SDS011;8724;51.272;6.554;2023-04-24T13:54:38;3.23;;;1.10;;
4700;SDS011;8724;51.272;6.554;2023-04-24T13:57:06;3.67;;;1.30;;
4700;SDS011;8724;51.272;6.554;2023-04-24T13:59:34;2.37;;;1.10;;
4700;SDS011;8724;51.272;6.554;2023-04-24T14:02:03;2.57;;;1.30;;
4700;SDS011;8724;51.272;6.554;2023-04-24T14:04:31;2.63;;;1.10;;
4700;SDS011;8724;51.272;6.554;2023-04-24T14:07:02;1.83;;;1.13;;
4700;SDS011;8724;51.272;6.554;2023-04-24T14:09:30;5.67;;;1.47;;
4700;SDS011;8724;51.272;6.554;2023-04-24T14:11:58;6.20;;;1.40;;
4700;SDS011;8724;51.272;6.554;2023-04-24T14:14:28;1.80;;;1.27;;
4700;SDS011;8724;51.272;6.554;2023-04-24T14:16:57;4.40;;;1.20;;
4700;SDS011;8724;51.272;6.554;2023-04-24T14:19:25;2.07;;;1.37;;
4700;SDS011;8724;51.272;6.554;2023-04-24T14:21:53;3.33;;;1.20;;
4700;SDS011;8724;51.272;6.554;2023-04-24T14:24:26;4.47;;;3.80;;
4700;SDS011;8724;51.272;6.554;2023-04-24T14:26:54;23.77;;;16.20;;
4700;SDS011;8724;51.272;6.554;2023-04-24T14:29:22;4.70;;;2.77;;
4700;SDS011;8724;51.272;6.554;2023-04-24T14:31:52;1.73;;;1.23;;
4700;SDS011;8724;51.272;6.554;2023-04-24T14:34:20;1.70;;;1.27;;
4700;SDS011;8724;51.272;6.554;2023-04-24T14:36:48;4.30;;;1.30;;
4700;SDS011;8724;51.272;6.554;2023-04-24T14:39:17;2.30;;;1.30;;
4700;SDS011;8724;51.272;6.554;2023-04-24T14:41:46;3.23;;;1.27;;
4700;SDS011;8724;51.272;6.554;2023-04-24T14:44:15;4.47;;;1.30;;
4700;SDS011;8724;51.272;6.554;2023-04-24T14:46:43;7.70;;;1.50;;
4700;SDS011;8724;51.272;6.554;2023-04-24T14:49:12;2.00;;;0.90;;
4700;SDS011;8724;51.272;6.554;2023-04-24T14:51:40;1.90;;;1.00;;
4700;SDS011;8724;51.272;6.554;2023-04-24T14:54:10;3.33;;;1.43;;
4700;SDS011;8724;51.272;6.554;2023-04-24T14:56:39;5.20;;;1.30;;
4700;SDS011;8724;51.272;6.554;2023-04-24T14:59:08;1.27;;;1.17;;
4700;SDS011;8724;51.272;6.554;2023-04-24T15:01:37;1.73;;;1.23;;
4700;SDS011;8724;51.272;6.554;2023-04-24T15:04:06;4.40;;;1.93;;
4700;SDS011;8724;51.272;6.554;2023-04-24T15:06:35;1.80;;;1.30;;
4700;SDS011;8724;51.272;6.554;2023-04-24T15:09:03;3.00;;;1.60;;
4700;SDS011;8724;51.272;6.554;2023-04-24T15:11:31;2.57;;;1.70;;
4700;SDS011;8724;51.272;6.554;2023-04-24T15:14:01;3.53;;;1.30;;
4700;SDS011;8724;51.272;6.554;2023-04-24T15:16:31;3.13;;;1.80;;
4700;SDS011;8724;51.272;6.554;2023-04-24T15:18:59;4.50;;;1.40;;
4700;SDS011;8724;51.272;6.554;2023-04-24T15:21:28;3.27;;;1.70;;
4700;SDS011;8724;51.272;6.554;2023-04-24T15:23:57;2.90;;;1.47;;
4700;SDS011;8724;51.272;6.554;2023-04-24T15:26:25;1.33;;;1.20;;
4700;SDS011;8724;51.272;6.554;2023-04-24T15:28:53;6.93;;;2.80;;
4700;SDS011;8724;51.272;6.554;2023-04-24T15:31:22;4.63;;;2.20;;
4700;SDS011;8724;51.272;6.554;2023-04-24T15:33:51;3.80;;;1.63;;
4700;SDS011;8724;51.272;6.554;2023-04-24T15:36:20;1.47;;;1.20;;
4700;SDS011;8724;51.272;6.554;2023-04-24T15:38:48;15.00;;;9.10;;
4700;SDS011;8724;51.272;6.554;2023-04-24T15:41:17;7.60;;;5.47;;